Time;durP1;ratioP1;P1;durP2;ratioP2;P2;SDS_P1;SDS_P2;PMS_P1;PMS_P2;Temp;Humidity;BMP_temperature;BMP_pressure;BME280_temperature;BME280_humidity;BME280_pressure;Samples;Min_cycle;Max_cycle;Signal;HPM_P1;HPM_P2
2022/01/11 00:01:28;;;;;;;85.88;29.92;;;;;;;-2.12;100.00;102805.13;4984185;28;20464;-80
2022/01/11 00:03:54;;;;;;;135.85;34.08;;;;;;;-2.10;100.00;102800.88;5003175;28;20018;-79
2022/01/11 00:09:31;;;;;;;148.65;31.63;;;;;;;-2.00;100.00;102797.31;4999320;28;20125;-79
2022/01/11 00:11:57;;;;;;;115.27;30.77;;;;;;;-2.05;100.00;102795.72;5012784;28;20453;-79
2022/01/11 00:14:23;;;;;;;109.05;31.38;;;;;;;-2.02;100.00;102799.03;5001854;28;20274;-79
2022/01/11 00:16:48;;;;;;;99.53;30.50;;;;;;;-2.07;100.00;102803.38;5019762;28;20040;-79
2022/01/11 00:19:15;;;;;;;120.80;35.17;;;;;;;-2.03;100.00;102807.53;5017035;28;20037;-79
2022/01/11 00:21:46;;;;;;;120.82;32.50;;;;;;;-1.97;100.00;102812.50;5013520;28;20041;-80
2022/01/11 00:24:32;;;;;;;150.95;34.17;;;;;;;-1.93;100.00;102809.94;5027117;28;20060;-78
2022/01/11 00:27:06;;;;;;;146.73;37.35;;;;;;;-2.00;100.00;102809.19;5018068;28;20034;-78
2022/01/11 00:29:33;;;;;;;115.95;32.88;;;;;;;-1.96;100.00;102819.28;5012560;28;20033;-80
2022/01/11 00:32:08;;;;;;;151.70;33.05;;;;;;;-1.97;100.00;102820.13;5000433;28;20010;-78
2022/01/11 00:34:48;;;;;;;125.63;32.65;;;;;;;-1.96;100.00;102829.47;4990864;28;20030;-78
2022/01/11 00:37:19;;;;;;;117.40;32.15;;;;;;;-1.80;100.00;102826.66;5008780;28;20064;-79
2022/01/11 00:39:50;;;;;;;137.43;32.55;;;;;;;-1.87;100.00;102831.00;5006734;28;20066;-79
2022/01/11 00:42:21;;;;;;;158.43;32.00;;;;;;;-1.83;100.00;102824.16;4997540;28;20034;-79
2022/01/11 00:44:47;;;;;;;134.88;32.65;;;;;;;-1.82;100.00;102830.94;5000916;28;20068;-78
2022/01/11 00:47:13;;;;;;;149.70;32.42;;;;;;;-1.73;100.00;102832.47;5014448;28;20408;-79
2022/01/11 00:49:40;;;;;;;120.68;32.13;;;;;;;-1.81;100.00;102842.75;5006105;28;20054;-78
2022/01/11 00:52:06;;;;;;;134.13;31.85;;;;;;;-1.81;100.00;102842.75;5011426;28;20509;-79
2022/01/11 00:54:32;;;;;;;154.00;32.45;;;;;;;-1.77;100.00;102831.69;5013143;28;20288;-79
2022/01/11 00:56:57;;;;;;;204.18;35.60;;;;;;;-1.69;100.00;102840.03;5007448;28;20431;-78
2022/01/11 00:59:23;;;;;;;146.43;32.15;;;;;;;-1.63;100.00;102842.44;5017335;28;20034;-79
2022/01/11 01:01:48;;;;;;;130.43;31.52;;;;;;;-1.70;100.00;102837.50;5009375;28;20061;-77
2022/01/11 01:04:14;;;;;;;113.85;30.33;;;;;;;-1.74;100.00;102835.88;5013977;28;20029;-78
2022/01/11 01:06:39;;;;;;;114.05;29.02;;;;;;;-1.76;100.00;102841.81;5018941;28;20763;-79
2022/01/11 01:09:07;;;;;;;146.52;32.53;;;;;;;-1.66;100.00;102839.94;5016056;28;20346;-80
2022/01/11 01:11:37;;;;;;;135.10;32.22;;;;;;;-1.63;100.00;102834.81;5017652;28;20032;-80
2022/01/11 01:14:02;;;;;;;170.30;34.38;;;;;;;-1.62;100.00;102840.75;5013847;28;20018;-80
2022/01/11 01:16:28;;;;;;;174.65;33.78;;;;;;;-1.62;100.00;102841.59;5012552;28;20460;-79
2022/01/11 01:19:02;;;;;;;141.90;31.48;;;;;;;-1.60;100.00;102849.19;4998843;28;20087;-80
2022/01/11 01:21:30;;;;;;;153.68;29.83;;;;;;;-1.59;100.00;102838.97;5015093;28;20097;-79
2022/01/11 01:23:55;;;;;;;148.20;31.13;;;;;;;-1.56;100.00;102848.28;5024471;28;20160;-79
2022/01/11 01:26:21;;;;;;;168.55;31.15;;;;;;;-1.60;100.00;102849.19;5011019;28;20018;-79
2022/01/11 01:28:47;;;;;;;161.10;30.00;;;;;;;-1.58;100.00;102861.03;5001586;28;20037;-78
2022/01/11 01:31:13;;;;;;;180.25;32.08;;;;;;;-1.59;100.00;102853.41;5001632;28;20441;-80
2022/01/11 01:33:39;;;;;;;148.52;31.80;;;;;;;-1.57;100.00;102861.88;5010550;28;20160;-78
2022/01/11 01:36:11;;;;;;;172.20;35.42;;;;;;;-1.60;100.00;102856.81;5004017;28;20034;-78
2022/01/11 01:38:37;;;;;;;140.27;30.33;;;;;;;-1.62;100.00;102866.19;5011363;28;20110;-77
2022/01/11 01:41:13;;;;;;;141.57;30.23;;;;;;;-1.54;100.00;102861.81;4999943;28;20399;-79
2022/01/11 01:43:39;;;;;;;152.30;30.65;;;;;;;-1.60;100.00;102872.94;5001734;28;20109;-78
2022/01/11 01:46:05;;;;;;;161.63;29.30;;;;;;;-1.65;100.00;102869.63;4999120;28;20045;-78
2022/01/11 01:48:31;;;;;;;124.68;28.95;;;;;;;-1.70;100.00;102876.50;5001477;28;20029;-78
2022/01/11 01:50:57;;;;;;;118.63;28.38;;;;;;;-1.71;100.00;102881.59;5002079;28;20046;-79
2022/01/11 01:53:23;;;;;;;189.60;29.58;;;;;;;-1.62;100.00;102886.53;5014381;28;20610;-79
2022/01/11 01:55:49;;;;;;;138.38;29.83;;;;;;;-1.66;100.00;102892.56;5016650;28;20444;-80
2022/01/11 01:58:16;;;;;;;159.07;31.27;;;;;;;-1.65;100.00;102884.91;4999005;28;20290;-79
2022/01/11 02:00:46;;;;;;;148.48;33.15;;;;;;;-1.56;100.00;102886.47;5005509;28;20034;-78
2022/01/11 02:03:15;;;;;;;180.05;32.55;;;;;;;-1.68;100.00;102891.75;4994455;28;20034;-79
2022/01/11 02:05:42;;;;;;;172.20;32.53;;;;;;;-1.65;100.00;102891.69;5022423;28;20042;-80
2022/01/11 02:08:09;;;;;;;163.23;31.98;;;;;;;-1.61;100.00;102894.16;5001764;28;20500;-79
2022/01/11 02:10:37;;;;;;;153.02;31.05;;;;;;;-1.69;100.00;102895.16;5004920;28;20060;-79
2022/01/11 02:13:04;;;;;;;173.25;30.70;;;;;;;-1.64;100.00;102895.91;5003356;28;20033;-78
2022/01/11 02:15:30;;;;;;;154.18;32.20;;;;;;;-1.64;100.00;102894.22;5022634;28;20025;-79
2022/01/11 02:18:10;;;;;;;131.00;30.70;;;;;;;-1.65;100.00;102906.97;5020198;28;20034;-79
2022/01/11 02:20:38;;;;;;;127.72;33.05;;;;;;;-1.62;100.00;102906.91;5011525;28;20396;-79
2022/01/11 02:23:04;;;;;;;109.68;28.98;;;;;;;-1.66;100.00;102910.34;5019064;28;20022;-79
2022/01/11 02:25:31;;;;;;;159.55;33.25;;;;;;;-1.54;100.00;102915.25;5004269;28;20022;-79
2022/01/11 02:27:56;;;;;;;143.90;31.27;;;;;;;-1.54;100.00;102914.41;5011311;28;20438;-79
2022/01/11 02:30:22;;;;;;;132.48;32.85;;;;;;;-1.52;100.00;102913.53;5033002;28;20041;-78
2022/01/11 02:32:51;;;;;;;186.18;38.13;;;;;;;-1.48;100.00;102912.59;5017098;28;20018;-79
2022/01/11 02:35:18;;;;;;;225.73;38.83;;;;;;;-1.59;100.00;102911.94;5023517;28;20088;-79
2022/01/11 02:37:45;;;;;;;177.30;37.53;;;;;;;-1.62;100.00;102909.44;5001890;28;20041;-79
2022/01/11 02:40:14;;;;;;;133.13;30.63;;;;;;;-1.61;100.00;102908.59;4999652;28;20068;-79
2022/01/11 02:42:39;;;;;;;149.85;34.95;;;;;;;-1.50;100.00;102914.34;5005761;28;20026;-79
2022/01/11 02:45:18;;;;;;;140.80;33.13;;;;;;;-1.51;100.00;102916.91;5007206;28;20028;-79
2022/01/11 02:47:45;;;;;;;155.60;32.75;;;;;;;-1.53;100.00;102911.84;5004750;28;20435;-80
2022/01/11 02:50:12;;;;;;;163.05;32.70;;;;;;;-1.57;100.00;102902.56;5018797;28;20076;-78
2022/01/11 02:52:43;;;;;;;166.07;32.55;;;;;;;-1.60;100.00;102900.94;4988529;28;20077;-79
2022/01/11 02:55:13;;;;;;;166.75;34.30;;;;;;;-1.65;100.00;102896.78;5015529;28;20032;-79
2022/01/11 02:57:39;;;;;;;131.10;32.42;;;;;;;-1.61;100.00;102898.41;5018082;28;20036;-79
2022/01/11 03:00:19;;;;;;;144.15;32.95;;;;;;;-1.58;100.00;102901.75;5016471;28;20069;-80
2022/01/11 03:02:45;;;;;;;118.97;29.10;;;;;;;-1.63;100.00;102907.78;5021454;28;20404;-80
2022/01/11 03:05:14;;;;;;;141.27;32.25;;;;;;;-1.53;100.00;102909.28;4995075;28;20037;-80
2022/01/11 03:07:41;;;;;;;146.57;31.88;;;;;;;-1.58;100.00;102914.47;5016193;28;20617;-79
2022/01/11 03:10:32;;;;;;;130.15;31.52;;;;;;;-1.58;100.00;102923.81;5023288;28;20022;-78
2022/01/11 03:13:01;;;;;;;131.43;31.52;;;;;;;-1.49;100.00;102926.19;5002380;28;20049;-80
2022/01/11 03:15:27;;;;;;;109.90;30.00;;;;;;;-1.47;100.00;102924.47;5013102;28;20397;-78
2022/01/11 03:17:58;;;;;;;126.28;32.00;;;;;;;-1.53;100.00;102922.00;4996459;28;20500;-79
2022/01/11 03:20:24;;;;;;;122.55;32.20;;;;;;;-1.61;100.00;102923.84;5024679;28;20033;-79
2022/01/11 03:22:50;;;;;;;135.40;33.25;;;;;;;-1.61;100.00;102923.84;5001664;28;20044;-79
2022/01/11 03:25:18;;;;;;;135.40;33.13;;;;;;;-1.55;100.00;102928.84;4997949;28;20273;-79
2022/01/11 03:27:44;;;;;;;113.28;31.70;;;;;;;-1.58;100.00;102929.75;5015364;28;20033;-80
2022/01/11 03:30:13;;;;;;;153.93;34.95;;;;;;;-1.53;100.00;102921.19;5014688;28;20034;-80
2022/01/11 03:32:42;;;;;;;138.48;35.72;;;;;;;-1.57;100.00;102935.66;5019546;28;20034;-79
2022/01/11 03:35:14;;;;;;;114.72;30.90;;;;;;;-1.66;100.00;102935.81;5003001;28;20026;-79
2022/01/11 03:37:43;;;;;;;125.10;32.75;;;;;;;-1.68;100.00;102947.72;5017393;28;20030;-79
2022/01/11 03:40:11;;;;;;;151.40;36.40;;;;;;;-1.65;100.00;102942.59;5004859;28;20041;-79
2022/01/11 03:42:38;;;;;;;135.15;35.22;;;;;;;-1.61;100.00;102939.97;4995402;28;20033;-79
2022/01/11 03:45:06;;;;;;;126.72;33.22;;;;;;;-1.63;100.00;102951.03;5002661;28;20113;-80
2022/01/11 03:47:31;;;;;;;146.45;36.10;;;;;;;-1.55;100.00;102949.19;5025104;28;20041;-79
2022/01/11 03:49:57;;;;;;;123.65;32.22;;;;;;;-1.61;100.00;102957.75;5023980;28;20037;-79
2022/01/11 03:52:23;;;;;;;133.95;34.13;;;;;;;-1.49;100.00;102953.34;5022335;28;20621;-78
2022/01/11 03:57:24;;;;;;;126.50;31.75;;;;;;;-1.50;100.00;102961.88;5007079;28;20415;-79
2022/01/11 03:59:50;;;;;;;140.77;30.20;;;;;;;-1.63;100.00;102962.03;4986273;28;20099;-79
2022/01/11 04:02:16;;;;;;;122.43;31.70;;;;;;;-1.69;100.00;102961.31;5002432;28;20562;-78
2022/01/11 04:04:41;;;;;;;112.80;30.42;;;;;;;-1.65;100.00;102960.41;4997226;28;20036;-78
2022/01/11 04:07:07;;;;;;;155.77;34.45;;;;;;;-1.65;100.00;102962.94;5001852;28;20024;-80
2022/01/11 04:09:33;;;;;;;138.60;34.63;;;;;;;-1.64;100.00;102964.59;5010182;28;20018;-80
2022/01/11 04:11:59;;;;;;;137.88;33.65;;;;;;;-1.70;100.00;102964.72;5002695;28;20037;-79
2022/01/11 04:14:27;;;;;;;131.68;31.65;;;;;;;-1.68;100.00;102961.25;5000034;28;20030;-80
2022/01/11 04:16:53;;;;;;;139.52;30.40;;;;;;;-1.56;100.00;102952.63;5014623;28;20028;-80
2022/01/11 04:19:20;;;;;;;136.57;31.88;;;;;;;-1.57;100.00;102958.56;4996761;28;20025;-79
2022/01/11 04:21:46;;;;;;;153.05;33.15;;;;;;;-1.68;100.00;102953.63;4997364;28;20225;-79
2022/01/11 04:24:13;;;;;;;158.13;35.25;;;;;;;-1.67;100.00;102957.88;5021782;28;20029;-78
2022/01/11 04:26:39;;;;;;;143.43;33.75;;;;;;;-1.71;100.00;102963.88;5000923;28;20056;-78
2022/01/11 04:29:06;;;;;;;132.13;32.58;;;;;;;-1.75;100.00;102962.25;5021609;28;20034;-79
2022/01/11 04:31:32;;;;;;;140.75;33.90;;;;;;;-1.65;100.00;102968.84;4999031;28;20034;-79
2022/01/11 04:33:57;;;;;;;151.40;34.15;;;;;;;-1.68;100.00;102970.59;4998583;28;20018;-80
2022/01/11 04:36:24;;;;;;;162.27;36.13;;;;;;;-1.60;100.00;102971.31;5016108;28;20472;-78
2022/01/11 04:38:50;;;;;;;168.65;35.10;;;;;;;-1.58;100.00;102960.28;5005760;28;20565;-79
2022/01/11 04:41:16;;;;;;;140.30;34.85;;;;;;;-1.71;100.00;102965.56;5015501;28;20030;-80
2022/01/11 04:43:45;;;;;;;176.88;37.88;;;;;;;-1.64;100.00;102964.59;5018199;28;20022;-78
2022/01/11 04:46:11;;;;;;;156.18;35.05;;;;;;;-1.66;100.00;102969.72;5020800;28;20428;-80
2022/01/11 04:48:38;;;;;;;164.52;39.47;;;;;;;-1.62;100.00;102961.19;5015768;28;20026;-79
2022/01/11 04:51:05;;;;;;;173.68;37.30;;;;;;;-1.67;100.00;102962.97;5011021;28;20038;-79
2022/01/11 04:53:31;;;;;;;164.10;35.13;;;;;;;-1.72;100.00;102966.44;4991703;28;20050;-80
2022/01/11 04:55:58;;;;;;;166.38;37.67;;;;;;;-1.71;100.00;102960.47;5010763;28;20022;-79
2022/01/11 04:58:24;;;;;;;169.05;35.90;;;;;;;-1.65;100.00;102965.50;5013466;28;20119;-79
2022/01/11 05:00:50;;;;;;;133.15;36.60;;;;;;;-1.77;100.00;102969.91;4986017;28;20492;-79
2022/01/11 05:03:18;;;;;;;208.20;39.83;;;;;;;-1.75;100.00;102969.88;5005991;28;20030;-78
2022/01/11 05:05:49;;;;;;;254.38;50.60;;;;;;;-1.75;100.00;102967.34;4996921;28;20104;-79
2022/01/11 05:08:14;;;;;;;166.57;39.72;;;;;;;-1.70;100.00;102967.25;5015134;28;20026;-79
2022/01/11 05:10:44;;;;;;;160.73;38.63;;;;;;;-1.68;100.00;102968.91;5003731;28;20471;-79
2022/01/11 05:13:14;;;;;;;198.73;40.97;;;;;;;-1.80;100.00;102967.38;4996273;28;20053;-79
2022/01/11 05:15:41;;;;;;;194.82;40.00;;;;;;;-1.82;100.00;102968.28;5008050;28;20057;-79
2022/01/11 05:18:07;;;;;;;183.48;37.15;;;;;;;-1.76;100.00;102969.03;5010241;28;20064;-80
2022/01/11 05:20:34;;;;;;;242.98;40.03;;;;;;;-1.80;100.00;102959.75;5008832;28;20088;-79
2022/01/11 05:23:00;;;;;;;168.27;36.15;;;;;;;-1.77;100.00;102957.19;5008029;28;20151;-79
2022/01/11 05:25:26;;;;;;;203.95;38.45;;;;;;;-1.87;100.00;102968.34;5012586;28;20033;-79
2022/01/11 05:27:52;;;;;;;197.23;39.03;;;;;;;-1.75;100.00;102964.78;4995572;28;20033;-79
2022/01/11 05:30:19;;;;;;;188.38;36.13;;;;;;;-1.83;100.00;102967.44;4996761;28;20030;-79
2022/01/11 05:32:48;;;;;;;154.63;36.53;;;;;;;-1.88;100.00;102965.84;5009153;28;20052;-80
2022/01/11 05:35:15;;;;;;;165.95;35.08;;;;;;;-1.84;100.00;102968.31;4994792;28;20038;-79
2022/01/11 05:37:42;;;;;;;215.57;38.55;;;;;;;-1.88;100.00;102966.69;5011627;28;20026;-79
2022/01/11 05:40:09;;;;;;;190.57;38.25;;;;;;;-1.93;100.00;102975.22;4996018;28;20495;-79
2022/01/11 05:42:36;;;;;;;189.13;40.10;;;;;;;-1.96;100.00;102971.00;5017520;28;20033;-79
2022/01/11 05:45:03;;;;;;;163.18;39.40;;;;;;;-1.87;100.00;102975.13;5013089;28;20100;-79
2022/01/11 05:47:30;;;;;;;168.70;38.30;;;;;;;-1.87;100.00;102975.13;5008973;28;20034;-79
2022/01/11 05:49:56;;;;;;;175.48;41.55;;;;;;;-1.83;100.00;102976.75;4998733;28;20029;-78
2022/01/11 05:52:22;;;;;;;204.07;40.05;;;;;;;-1.77;100.00;102974.16;4993600;28;20679;-79
2022/01/11 05:54:47;;;;;;;174.32;39.97;;;;;;;-1.72;100.00;102979.16;5009474;28;20037;-79
2022/01/11 05:57:13;;;;;;;188.70;41.08;;;;;;;-1.76;100.00;102981.75;4993502;28;20037;-79
2022/01/11 05:59:39;;;;;;;153.38;39.45;;;;;;;-1.80;100.00;102984.38;5008979;28;20063;-79
2022/01/11 06:02:05;;;;;;;143.27;38.40;;;;;;;-1.72;100.00;102980.00;5003353;28;20477;-79
2022/01/11 06:04:30;;;;;;;180.02;39.53;;;;;;;-1.71;100.00;102979.13;5011139;28;20022;-77
2022/01/11 06:06:56;;;;;;;175.43;36.83;;;;;;;-1.79;100.00;102979.25;5004599;28;20107;-80
2022/01/11 06:09:26;;;;;;;153.38;36.33;;;;;;;-1.92;100.00;102990.47;5009080;28;20030;-79
2022/01/11 06:11:53;;;;;;;141.35;37.55;;;;;;;-1.98;100.00;102990.53;4994246;28;20528;-80
2022/01/11 06:14:19;;;;;;;125.18;35.03;;;;;;;-1.95;100.00;102995.59;5002856;28;20109;-79
2022/01/11 06:16:45;;;;;;;153.15;38.80;;;;;;;-1.93;100.00;102998.13;5009561;28;20562;-79
2022/01/11 06:19:11;;;;;;;142.85;36.70;;;;;;;-1.82;100.00;102997.09;4993644;28;20040;-79
2022/01/11 06:21:48;;;;;;;167.10;38.50;;;;;;;-1.84;100.00;102993.75;5001493;28;20479;-79
2022/01/11 06:24:14;;;;;;;146.35;34.67;;;;;;;-1.81;100.00;102986.06;4993552;28;20224;-80
2022/01/11 06:26:41;;;;;;;148.48;34.47;;;;;;;-1.79;100.00;102991.13;5010703;28;20096;-79
2022/01/11 06:29:07;;;;;;;130.50;33.13;;;;;;;-1.83;100.00;103000.53;5006239;28;20030;-79
2022/01/11 06:31:35;;;;;;;175.32;32.88;;;;;;;-1.87;100.00;103003.94;4993640;28;20033;-79
2022/01/11 06:34:02;;;;;;;164.57;36.63;;;;;;;-1.94;100.00;103007.47;4993899;28;20503;-79
2022/01/11 06:36:28;;;;;;;119.60;33.70;;;;;;;-1.93;100.00;103006.59;5012952;28;20049;-79
2022/01/11 06:38:54;;;;;;;117.43;33.55;;;;;;;-2.02;100.00;103004.16;4994912;28;20506;-79
2022/01/11 06:41:24;;;;;;;118.88;32.05;;;;;;;-1.96;100.00;103016.78;4989888;28;20684;-79
2022/01/11 06:43:52;;;;;;;119.80;31.08;;;;;;;-1.90;100.00;103013.31;4998077;28;20041;-79
2022/01/11 06:46:18;;;;;;;142.65;34.03;;;;;;;-1.97;100.00;103015.13;4987680;28;20033;-79
2022/01/11 06:48:44;;;;;;;136.00;34.00;;;;;;;-1.96;100.00;103019.34;5021941;28;20053;-79
2022/01/11 06:51:10;;;;;;;141.95;33.83;;;;;;;-1.91;100.00;103029.47;5008351;28;20057;-79
2022/01/11 06:53:43;;;;;;;122.40;30.00;;;;;;;-1.90;100.00;103029.44;4994584;28;20463;-79
2022/01/11 06:56:09;;;;;;;102.80;28.45;;;;;;;-1.90;100.00;103028.56;5011854;28;21077;-78
2022/01/11 06:58:35;;;;;;;117.47;28.88;;;;;;;-1.98;100.00;103036.31;4986240;28;20034;-79
2022/01/11 07:01:01;;;;;;;110.65;28.08;;;;;;;-2.07;100.00;103044.06;4999918;28;20125;-79
2022/01/11 07:03:28;;;;;;;124.05;27.73;;;;;;;-2.02;100.00;103045.69;5013233;28;20061;-78
2022/01/11 07:06:29;;;;;;;118.72;30.75;;;;;;;-1.96;100.00;103048.16;5000987;28;20656;-78
2022/01/11 07:08:54;;;;;;;117.95;28.15;;;;;;;-2.04;100.00;103044.03;5012347;28;20037;-79
2022/01/11 07:11:23;;;;;;;105.05;29.27;;;;;;;-2.06;100.00;103046.59;5004672;28;20061;-79
2022/01/11 07:13:51;;;;;;;107.40;30.73;;;;;;;-2.06;100.00;103054.22;5009692;28;20484;-79
2022/01/11 07:16:17;;;;;;;109.32;32.50;;;;;;;-1.99;100.00;103055.00;4993435;28;20072;-79
2022/01/11 07:18:44;;;;;;;99.70;30.00;;;;;;;-1.96;100.00;103060.88;4998850;28;20014;-80
2022/01/11 07:21:10;;;;;;;121.07;32.03;;;;;;;-1.97;100.00;103066.81;4995995;28;20034;-80
2022/01/11 07:23:37;;;;;;;153.43;36.53;;;;;;;-2.00;100.00;103066.88;5011695;28;20042;-79
2022/01/11 07:26:02;;;;;;;159.68;35.45;;;;;;;-2.01;100.00;103062.63;5012636;28;20157;-79
2022/01/11 07:28:31;;;;;;;126.50;35.28;;;;;;;-2.02;100.00;103055.84;5012907;28;20446;-79
2022/01/11 07:30:58;;;;;;;136.32;36.63;;;;;;;-2.06;100.00;103061.00;5013020;28;20022;-79
2022/01/11 07:33:24;;;;;;;132.07;32.13;;;;;;;-2.03;100.00;103061.81;5013370;28;20030;-79
2022/01/11 07:35:51;;;;;;;122.85;34.03;;;;;;;-1.98;100.00;103066.81;5006671;28;20050;-79
2022/01/11 07:38:17;;;;;;;137.63;34.85;;;;;;;-1.90;100.00;103059.97;4995108;28;20399;-79
2022/01/11 07:40:43;;;;;;;203.48;53.78;;;;;;;-1.85;100.00;103054.81;4995494;28;20444;-79
2022/01/11 07:43:20;;;;;;;149.20;41.15;;;;;;;-1.84;100.00;103061.59;5009068;28;20041;-78
2022/01/11 07:45:52;;;;;;;169.68;44.85;;;;;;;-1.87;100.00;103062.44;5012779;28;20030;-78
2022/01/11 07:48:19;;;;;;;137.88;37.47;;;;;;;-1.99;100.00;103067.72;5011345;28;20033;-78
2022/01/11 07:50:53;;;;;;;129.02;36.30;;;;;;;-1.91;100.00;103065.06;5008201;28;20030;-79
2022/01/11 07:53:18;;;;;;;133.20;34.70;;;;;;;-2.00;100.00;103066.88;5009203;28;20045;-78
2022/01/11 07:55:50;;;;;;;122.30;32.80;;;;;;;-2.01;100.00;103080.44;5013939;28;20034;-78
2022/01/11 07:58:18;;;;;;;114.95;29.75;;;;;;;-1.87;100.00;103090.44;5017263;28;20448;-79
2022/01/11 08:00:44;;;;;;;107.38;31.45;;;;;;;-2.00;100.00;103087.22;4992953;28;20512;-79
2022/01/11 08:03:13;;;;;;;108.43;30.30;;;;;;;-1.94;100.00;103088.84;5000104;28;20017;-79
2022/01/11 08:06:01;;;;;;;131.73;31.30;;;;;;;-1.89;100.00;103086.22;4993727;28;20030;-79
2022/01/11 08:08:28;;;;;;;97.18;29.83;;;;;;;-1.98;100.00;103092.25;5011185;28;20060;-79
2022/01/11 08:10:56;;;;;;;115.03;31.13;;;;;;;-1.94;100.00;103087.97;4996044;28;20496;-78
2022/01/11 08:13:25;;;;;;;107.70;30.52;;;;;;;-1.93;100.00;103103.22;4995974;28;20061;-79
2022/01/11 08:15:51;;;;;;;111.47;31.45;;;;;;;-1.99;100.00;103104.16;5011836;28;20026;-79
2022/01/11 08:18:17;;;;;;;103.43;29.52;;;;;;;-1.99;100.00;103100.78;5009853;28;20033;-79
2022/01/11 08:20:44;;;;;;;127.10;30.02;;;;;;;-2.01;100.00;103107.56;5016121;28;20563;-79
2022/01/11 08:23:11;;;;;;;162.05;41.65;;;;;;;-1.94;100.00;103110.88;5001537;28;20374;-79
2022/01/11 08:25:38;;;;;;;121.80;34.85;;;;;;;-1.82;100.00;103109.03;5000007;28;20045;-78
2022/01/11 08:28:04;;;;;;;111.22;32.75;;;;;;;-1.88;100.00;103111.66;5002253;28;20040;-79
2022/01/11 08:30:31;;;;;;;121.20;30.45;;;;;;;-1.86;100.00;103116.72;5004347;28;20553;-81
2022/01/11 08:33:04;;;;;;;116.05;33.30;;;;;;;-1.85;100.00;103123.47;4998830;28;20092;-78
2022/01/11 08:35:33;;;;;;;111.50;33.25;;;;;;;-1.77;100.00;103119.16;4978287;28;20034;-78
2022/01/11 08:37:59;;;;;;;118.28;31.75;;;;;;;-1.77;100.00;103127.63;4995977;28;20069;-79
2022/01/11 08:40:26;;;;;;;118.90;33.50;;;;;;;-1.70;100.00;103130.91;5009977;28;20044;-79
2022/01/11 08:42:58;;;;;;;114.53;32.88;;;;;;;-1.72;100.00;103122.47;5011806;28;20079;-79
2022/01/11 08:45:24;;;;;;;129.95;35.45;;;;;;;-1.71;100.00;103121.63;5017255;28;20488;-79
2022/01/11 08:47:57;;;;;;;120.93;34.00;;;;;;;-1.65;100.00;103128.31;4994837;28;20037;-79
2022/01/11 08:50:23;;;;;;;132.50;39.67;;;;;;;-1.66;100.00;103131.72;5010309;28;20050;-79
2022/01/11 08:52:50;;;;;;;144.80;40.13;;;;;;;-1.67;100.00;103127.50;4999419;28;20024;-81
2022/01/11 08:55:20;;;;;;;159.00;41.33;;;;;;;-1.65;100.00;103123.25;5017499;28;20045;-79
2022/01/11 08:57:46;;;;;;;128.25;35.47;;;;;;;-1.53;100.00;103127.31;5015847;28;20033;-79
2022/01/11 09:00:18;;;;;;;124.07;35.47;;;;;;;-1.61;100.00;103127.41;5020130;28;20029;-79
2022/01/11 09:02:50;;;;;;;142.43;37.15;;;;;;;-1.67;100.00;103125.78;5006597;28;20083;-79
2022/01/11 09:05:17;;;;;;;117.53;33.50;;;;;;;-1.65;100.00;103121.53;5000703;28;20021;-79
2022/01/11 09:07:42;;;;;;;134.15;34.28;;;;;;;-1.57;100.00;103121.41;5013929;28;20037;-79
2022/01/11 09:10:09;;;;;;;136.75;34.10;;;;;;;-1.58;100.00;103128.22;5013664;28;20030;-78
2022/01/11 09:12:35;;;;;;;115.82;33.67;;;;;;;-1.62;100.00;103125.72;5012819;28;20040;-78
2022/01/11 09:15:02;;;;;;;112.68;31.38;;;;;;;-1.61;100.00;103123.16;4978376;28;20037;-78
2022/01/11 09:17:28;;;;;;;104.05;32.10;;;;;;;-1.63;100.00;103131.69;4998693;28;20709;-78
2022/01/11 09:19:54;;;;;;;111.40;31.75;;;;;;;-1.53;100.00;103134.94;4995663;28;20033;-79
2022/01/11 09:22:22;;;;;;;105.60;32.00;;;;;;;-1.51;100.00;103121.34;5008779;28;20042;-79
2022/01/11 09:24:49;;;;;;;107.95;32.38;;;;;;;-1.47;100.00;103125.53;5003069;28;20029;-78
2022/01/11 09:27:18;;;;;;;109.60;31.92;;;;;;;-1.48;100.00;103125.56;5010590;28;20029;-79
2022/01/11 09:29:45;;;;;;;102.47;29.85;;;;;;;-1.44;100.00;103129.75;5010336;28;20053;-80
2022/01/11 09:32:14;;;;;;;110.60;31.27;;;;;;;-1.40;100.00;103137.28;5006518;28;20018;-79
2022/01/11 09:34:41;;;;;;;109.53;31.05;;;;;;;-1.47;100.00;103140.81;5014004;28;20692;-79
2022/01/11 09:37:13;;;;;;;134.93;33.92;;;;;;;-1.39;100.00;103135.63;4997010;28;20639;-79
2022/01/11 09:39:41;;;;;;;111.85;33.92;;;;;;;-1.35;100.00;103138.97;4972148;28;20044;-79
2022/01/11 09:42:07;;;;;;;142.23;34.65;;;;;;;-1.31;100.00;103133.78;5005859;28;20038;-79
2022/01/11 09:44:38;;;;;;;114.10;32.22;;;;;;;-1.26;100.00;103123.53;4995301;28;20061;-79
2022/01/11 09:47:11;;;;;;;116.50;33.10;;;;;;;-1.18;100.00;103129.38;5005272;28;20028;-79
2022/01/11 09:49:37;;;;;;;114.28;32.88;;;;;;;-1.21;100.00;103131.94;4994500;28;20456;-79
2022/01/11 09:52:07;;;;;;;102.90;30.00;;;;;;;-1.22;100.00;103132.81;4993982;28;20419;-79
2022/01/11 09:54:35;;;;;;;108.63;31.25;;;;;;;-1.13;100.00;103134.38;4976339;28;20392;-79
2022/01/11 09:57:02;;;;;;;118.05;33.08;;;;;;;-1.05;100.00;103135.94;5005079;28;20034;-79
2022/01/11 09:59:27;;;;;;;108.88;32.70;;;;;;;-1.04;100.00;103132.53;4999848;28;20064;-79
2022/01/11 10:02:12;;;;;;;105.95;31.10;;;;;;;-1.03;100.00;103141.88;5008735;28;20048;-79
2022/01/11 10:05:01;;;;;;;108.45;32.05;;;;;;;-1.06;100.00;103147.00;5014901;28;20620;-79
2022/01/11 10:07:45;;;;;;;106.55;29.90;;;;;;;-1.17;100.00;103141.22;4996559;28;20161;-78
2022/01/11 10:10:13;;;;;;;94.65;31.33;;;;;;;-1.24;100.00;103145.56;5001878;28;20093;-79
2022/01/11 10:12:41;;;;;;;98.60;30.85;;;;;;;-1.05;100.00;103152.94;4994285;28;20025;-78
2022/01/11 10:15:07;;;;;;;97.03;30.50;;;;;;;-0.98;100.00;103150.28;4992863;28;20500;-79
2022/01/11 10:17:39;;;;;;;96.00;30.83;;;;;;;-0.92;100.00;103140.84;5010136;28;20033;-79
2022/01/11 10:20:13;;;;;;;93.15;30.77;;;;;;;-0.92;100.00;103144.25;4993776;28;20527;-77
2022/01/11 10:22:51;;;;;;;92.25;31.15;;;;;;;-0.89;100.00;103153.53;4993474;28;20848;-78
2022/01/11 10:25:18;;;;;;;97.05;30.25;;;;;;;-0.94;100.00;103150.22;4993282;28;20034;-77
2022/01/11 10:27:52;;;;;;;94.40;29.35;;;;;;;-1.02;100.00;103148.66;4993520;28;20018;-79
2022/01/11 10:30:20;;;;;;;95.20;30.95;;;;;;;-0.89;100.00;103148.44;4993952;28;20515;-79
2022/01/11 10:32:57;;;;;;;107.20;32.88;;;;;;;-1.00;100.00;103152.00;4993092;28;20026;-78
2022/01/11 10:35:32;;;;;;;109.00;33.10;;;;;;;-0.79;100.00;103144.91;5011593;28;20025;-79
2022/01/11 10:38:02;;;;;;;93.30;31.25;;;;;;;-0.79;100.00;103139.81;5001999;28;20026;-79
2022/01/11 10:40:34;;;;;;;95.93;30.85;;;;;;;-0.92;100.00;103154.44;5012077;28;20434;-79
2022/01/11 10:43:04;;;;;;;93.82;31.70;;;;;;;-0.86;100.00;103149.25;5013239;28;20109;-79
2022/01/11 10:45:35;;;;;;;107.97;33.83;;;;;;;-0.79;100.00;103147.44;5013312;28;20335;-79
2022/01/11 10:48:08;;;;;;;110.07;33.58;;;;;;;-0.81;100.00;103142.38;5011837;28;20330;-79
2022/01/11 10:50:42;;;;;;;95.63;31.70;;;;;;;-0.68;100.00;103147.25;4987697;28;20040;-78
2022/01/11 10:53:14;;;;;;;100.10;33.33;;;;;;;-0.70;100.00;103149.81;4997866;28;20052;-78
2022/01/11 10:55:40;;;;;;;104.70;34.95;;;;;;;-0.60;100.00;103146.25;4997123;28;20009;-78
2022/01/11 10:58:11;;;;;;;94.55;30.75;;;;;;;-0.66;100.00;103138.72;5006990;28;20033;-78
2022/01/11 11:00:43;;;;;;;108.28;30.98;;;;;;;-0.69;100.00;103141.31;5014764;28;20034;-79
2022/01/11 11:03:26;;;;;;;106.85;32.88;;;;;;;-0.73;99.91;103141.41;5005484;28;20061;-78
2022/01/11 11:06:10;;;;;;;93.35;30.63;;;;;;;-0.66;100.00;103142.97;4992559;28;20034;-78